createdAt,value
2019-04-24T03:34:42.921Z,95491.36
2019-04-24T03:37:10.441Z,95498.59
2019-04-24T03:44:50.119Z,95519.31
2019-04-24T03:46:57.960Z,95512.59
2019-04-24T03:49:54.935Z,95521.84
2019-04-24T03:52:18.477Z,95524.38
2019-04-24T03:55:03.678Z,95533.66
2019-04-24T04:03:07.082Z,95542.15
2019-04-24T04:10:33.923Z,95553.55
2019-04-24T04:13:29.607Z,95562.84
2019-04-24T04:15:33.949Z,95561.58
2019-04-24T04:18:42.215Z,95560.73
2019-04-24T04:26:37.855Z,95572.96
2019-04-24T04:32:43.874Z,95578.86
2019-04-24T04:35:05.343Z,95580.09
2019-04-24T04:37:38.398Z,95584.31
2019-04-24T04:40:49.399Z,95590.18
2019-04-24T04:45:58.735Z,95580.89
2019-04-24T04:48:26.854Z,95592.25
2019-04-24T04:56:29.143Z,95600.20
2019-04-24T05:02:02.833Z,95597.61
2019-04-24T05:04:45.369Z,95605.16
2019-04-24T05:12:33.796Z,95615.11
2019-04-24T05:17:50.502Z,95609.63
2019-04-24T05:20:27.011Z,95612.53
2019-04-24T05:22:36.442Z,95619.27
2019-04-24T05:25:29.213Z,95621.76
2019-04-24T05:27:43.330Z,95619.18
2019-04-24T05:30:28.547Z,95631.77
2019-04-24T05:35:47.158Z,95637.25
2019-04-24T05:38:18.255Z,95631.41
2019-04-24T05:40:49.634Z,95633.98
2019-04-24T05:46:05.320Z,95639.88
2019-04-24T05:48:43.853Z,95644.51
2019-04-24T05:59:20.299Z,95647.97
2019-04-24T06:02:26.077Z,95643.67
2019-04-24T06:07:53.794Z,95647.75
2019-04-24T06:10:23.851Z,95653.55
2019-04-24T06:12:58.978Z,95658.94
2019-04-24T06:16:21.514Z,95657.57
2019-04-24T06:19:02.338Z,95649.84
2019-04-24T06:24:07.688Z,95653.70
2019-04-24T06:26:20.763Z,95651.02
2019-04-24T06:39:39.182Z,95646.23
2019-04-24T06:42:25.219Z,95652.89
2019-04-24T06:49:54.115Z,95650.73
2019-04-24T06:54:53.938Z,95646.23
2019-04-24T07:00:32.056Z,95655.15
2019-04-24T07:02:56.450Z,95652.78
2019-04-24T07:05:35.134Z,95657.20
2019-04-24T07:08:07.180Z,95662.64
2019-04-24T07:11:05.746Z,95666.31
2019-04-24T07:14:03.012Z,95662.30
2019-04-24T07:16:43.639Z,95670.91
2019-04-24T07:19:22.605Z,95666.20
2019-04-24T07:21:50.777Z,95661.59
2019-04-24T07:24:39.164Z,95661.38
2019-04-24T07:26:59.633Z,95670.91
2019-04-24T07:32:30.008Z,95672.69
2019-04-24T07:35:29.581Z,95669.36
2019-04-24T07:37:52.615Z,95666.77
2019-04-24T07:40:12.802Z,95663.28
2019-04-24T07:43:07.581Z,95663.36
2019-04-24T07:45:34.005Z,95663.83
2019-04-24T07:47:51.164Z,95663.48
2019-04-24T08:04:16.720Z,95681.88
2019-04-24T08:09:57.079Z,95681.09
2019-04-24T08:12:08.645Z,95681.39
2019-04-24T08:14:55.544Z,95682.56
2019-04-24T08:17:12.940Z,95683.58
2019-04-24T08:22:10.859Z,95677.37
2019-04-24T08:27:17.761Z,95688.02
2019-04-24T08:29:57.130Z,95691.73
2019-04-24T08:32:25.119Z,95693.16
2019-04-24T08:37:38.817Z,95693.42
2019-04-24T08:40:46.281Z,95696.64
2019-04-24T08:45:53.322Z,95693.94
2019-04-24T08:48:48.506Z,95691.44
2019-04-24T08:58:57.539Z,95684.34
2019-04-24T09:01:46.634Z,95687.83
2019-04-24T09:06:40.426Z,95682.20
2019-04-24T09:09:18.317Z,95683.11
2019-04-24T09:12:07.545Z,95681.59
2019-04-24T09:14:39.643Z,95686.14
2019-04-24T09:17:10.200Z,95678.17
2019-04-24T09:19:57.453Z,95672.10
2019-04-24T09:22:46.554Z,95675.28
2019-04-24T09:25:30.192Z,95664.69
2019-04-24T09:30:25.679Z,95661.48
2019-04-24T09:38:49.172Z,95662.92
2019-04-24T09:54:40.108Z,95654.55
2019-04-24T09:57:19.374Z,95652.58
2019-04-24T09:59:45.596Z,95649.70
2019-04-24T10:02:30.809Z,95648.08
2019-04-24T10:07:50.212Z,95647.03
2019-04-24T10:13:02.966Z,95644.59
2019-04-24T10:15:40.706Z,95645.70
2019-04-24T10:18:25.014Z,95644.41
2019-04-24T10:20:51.467Z,95651.08
2019-04-24T10:24:01.458Z,95645.91
2019-04-24T10:34:52.590Z,95631.67
2019-04-24T10:38:03.065Z,95628.33
2019-04-24T10:40:25.663Z,95626.87
2019-04-24T10:43:10.457Z,95624.27
2019-04-24T10:46:21.225Z,95624.03
2019-04-24T10:49:31.830Z,95627.73
2019-04-24T10:54:45.098Z,95626.71
2019-04-24T10:57:11.176Z,95627.20
2019-04-24T10:59:51.319Z,95627.83
2019-04-24T11:08:25.758Z,95621.00
2019-04-24T11:10:54.132Z,95628.39
2019-04-24T11:13:55.767Z,95627.06
2019-04-24T11:17:07.325Z,95629.68
2019-04-24T11:19:36.271Z,95623.52
2019-04-24T11:22:25.370Z,95622.05
2019-04-24T11:25:11.729Z,95612.98
2019-04-24T11:33:21.104Z,95610.39
2019-04-24T11:36:02.617Z,95615.77
2019-04-24T11:38:54.259Z,95607.31
2019-04-24T11:41:26.085Z,95613.10
2019-04-24T11:43:58.676Z,95608.16
2019-04-24T11:49:32.758Z,95598.95
2019-04-24T11:52:57.312Z,95605.60
2019-04-24T11:58:21.118Z,95600.05
2019-04-24T12:00:26.281Z,95601.97
2019-04-24T12:03:44.698Z,95600.92
2019-04-24T12:06:14.011Z,95600.34
2019-04-24T12:16:46.927Z,95608.06
2019-04-24T12:19:28.757Z,95612.75
2019-04-24T12:22:12.241Z,95602.14
2019-04-24T12:27:18.229Z,95599.27
2019-04-24T12:32:58.081Z,95606.68
2019-04-24T12:35:29.026Z,95597.67
2019-04-24T12:43:49.591Z,95596.03
2019-04-24T12:46:25.827Z,95582.56
2019-04-24T12:51:10.590Z,95580.84
2019-04-24T12:54:05.849Z,95581.47
2019-04-24T12:56:58.284Z,95579.20
2019-04-24T12:59:34.463Z,95577.28
2019-04-24T13:02:12.988Z,95577.09
2019-04-24T13:05:00.384Z,95577.86
2019-04-24T13:07:15.662Z,95584.33
2019-04-24T13:20:17.297Z,95575.11
2019-04-24T13:22:50.360Z,95568.27
2019-04-24T13:26:06.067Z,95571.56
2019-04-24T13:28:52.316Z,95578.41
2019-04-24T13:31:52.050Z,95575.34
2019-04-24T13:36:57.489Z,95568.70
2019-04-24T13:39:35.976Z,95571.71
2019-04-24T13:42:02.826Z,95577.84
2019-04-24T13:44:28.063Z,95566.95
2019-04-24T13:47:07.776Z,95556.44
2019-04-24T13:52:16.919Z,95555.48
2019-04-24T13:54:42.663Z,95566.48
2019-04-24T13:57:07.241Z,95563.29
2019-04-24T13:59:46.398Z,95565.42
2019-04-24T14:02:20.393Z,95562.81
2019-04-24T14:04:47.673Z,95556.17
2019-04-24T14:07:28.782Z,95556.06
2019-04-24T14:15:08.904Z,95535.61
2019-04-24T14:17:24.388Z,95533.00
2019-04-24T14:23:02.487Z,95536.30
2019-04-24T14:28:10.861Z,95538.45
2019-04-24T14:30:35.972Z,95540.80
2019-04-24T14:35:50.239Z,95550.84
2019-04-24T14:38:14.292Z,95542.35
2019-04-24T14:40:33.217Z,95548.03
2019-04-24T14:43:23.711Z,95550.73
2019-04-24T14:46:03.530Z,95550.22
2019-04-24T14:48:21.573Z,95557.60
2019-04-24T14:51:00.515Z,95553.92
2019-04-24T14:53:24.320Z,95555.03
2019-04-24T14:55:53.611Z,95561.51
2019-04-24T14:58:26.949Z,95564.04
2019-04-24T15:03:34.353Z,95568.50
2019-04-24T15:08:33.321Z,95569.52
2019-04-24T15:11:04.537Z,95579.97
2019-04-24T15:18:57.621Z,95576.15
2019-04-24T15:21:22.218Z,95575.03
2019-04-24T15:24:22.182Z,95573.84
2019-04-24T15:26:25.878Z,95578.31
2019-04-24T15:29:03.614Z,95575.38
2019-04-24T15:31:20.350Z,95586.97
2019-04-24T15:34:16.098Z,95587.20
2019-04-24T15:36:25.837Z,95584.41
2019-04-24T15:39:08.005Z,95580.11
2019-04-24T15:42:02.682Z,95583.33
2019-04-24T15:44:08.722Z,95581.06
2019-04-24T15:46:50.387Z,95590.92
2019-04-24T15:49:21.641Z,95582.83
2019-04-24T15:51:30.293Z,95586.35
2019-04-24T15:53:51.137Z,95590.38
2019-04-24T15:56:22.969Z,95584.36
2019-04-24T15:59:03.014Z,95580.22
2019-04-24T16:02:00.409Z,95586.29
2019-04-24T16:04:27.814Z,95584.12
2019-04-24T16:06:42.951Z,95587.15
2019-04-24T16:09:27.887Z,95592.80
2019-04-24T16:11:58.637Z,95594.15
2019-04-24T16:14:53.095Z,95594.54
2019-04-24T16:17:35.274Z,95591.78
2019-04-24T16:22:33.210Z,95595.81
2019-04-24T16:25:11.120Z,95600.86
2019-04-24T16:35:15.307Z,95603.34
2019-04-24T16:37:50.962Z,95605.80
2019-04-24T16:40:47.029Z,95601.91
2019-04-24T16:46:03.983Z,95610.42
2019-04-24T16:48:29.686Z,95615.25
2019-04-24T16:51:03.716Z,95610.53
2019-04-24T16:53:27.806Z,95614.12
2019-04-24T16:55:52.924Z,95607.65
2019-04-24T16:58:31.541Z,95612.08
2019-04-24T17:01:24.665Z,95608.19
2019-04-24T17:06:26.070Z,95611.84
2019-04-24T17:08:59.833Z,95605.88
2019-04-24T17:11:47.674Z,95619.42
2019-04-24T17:17:29.901Z,95635.92
2019-04-24T17:19:59.346Z,95639.89
2019-04-24T17:25:01.112Z,95634.67
2019-04-24T17:35:18.637Z,95642.41
2019-04-24T17:37:09.855Z,95631.34
2019-04-24T17:40:01.958Z,95637.26
2019-04-24T17:42:47.354Z,95640.07
2019-04-24T17:45:36.121Z,95643.94
2019-04-24T17:50:32.086Z,95645.73
2019-04-24T17:53:16.819Z,95653.91
2019-04-24T17:55:43.254Z,95658.38
2019-04-24T17:57:46.711Z,95653.83
2019-04-24T18:00:34.883Z,95656.72
2019-04-24T18:03:10.805Z,95671.17
2019-04-24T18:05:37.256Z,95670.69
2019-04-24T18:08:08.594Z,95675.95
2019-04-24T18:10:39.604Z,95672.00
2019-04-24T18:13:11.413Z,95681.53
2019-04-24T18:15:42.773Z,95691.84
2019-04-24T18:18:13.348Z,95693.80
2019-04-24T18:20:45.301Z,95691.38
2019-04-24T18:23:15.848Z,95690.75
2019-04-24T18:26:25.599Z,95687.69
2019-04-24T18:29:22.329Z,95695.41
2019-04-24T18:32:18.288Z,95703.80
2019-04-24T18:35:16.203Z,95696.99
2019-04-24T18:38:16.436Z,95695.70
2019-04-24T18:41:11.617Z,95702.51
2019-04-24T18:44:06.587Z,95701.37
2019-04-24T18:47:02.524Z,95697.63
2019-04-24T18:49:59.443Z,95707.80
2019-04-24T18:52:56.103Z,95715.38
2019-04-24T18:55:52.723Z,95717.17
2019-04-24T18:58:49.633Z,95721.48
2019-04-24T19:01:45.493Z,95730.55
2019-04-24T19:04:43.219Z,95735.18
2019-04-24T19:07:38.928Z,95742.91
2019-04-24T19:10:36.506Z,95745.98
2019-04-24T19:13:32.235Z,95753.06
2019-04-24T19:16:29.061Z,95757.17
2019-04-24T19:19:24.012Z,95758.97
2019-04-24T19:22:20.646Z,95767.36
2019-04-24T19:25:17.563Z,95768.79
2019-04-24T19:28:16.201Z,95771.25
2019-04-24T19:31:10.332Z,95777.64
2019-04-24T19:34:09.215Z,95782.27
2019-04-24T19:37:05.992Z,95781.19
2019-04-24T19:40:01.697Z,95785.16
2019-04-24T19:43:01.402Z,95791.09
2019-04-24T19:45:56.385Z,95802.51
2019-04-24T19:48:52.334Z,95802.79
2019-04-24T19:51:49.169Z,95809.91
2019-04-24T19:54:45.894Z,95820.73
2019-04-24T19:57:42.462Z,95833.87
2019-04-24T20:00:37.976Z,95845.81
2019-04-24T20:03:35.898Z,95840.91
2019-04-24T20:06:32.771Z,95849.77
2019-04-24T20:09:53.396Z,95849.13
2019-04-24T20:12:51.216Z,95860.96
2019-04-24T20:15:46.972Z,95869.45
2019-04-24T20:18:44.504Z,95867.89
2019-04-24T20:21:39.123Z,95884.73
2019-04-24T20:24:35.991Z,95898.19
2019-04-24T20:27:32.869Z,95920.28
2019-04-24T20:30:31.325Z,95917.44
2019-04-24T20:33:27.443Z,95914.64
2019-04-24T20:36:24.739Z,95929.15
2019-04-24T20:39:21.543Z,95928.27
2019-04-24T20:42:17.323Z,95931.34
2019-04-24T20:45:16.120Z,95935.30
2019-04-24T20:48:11.011Z,95937.20
2019-04-24T20:51:06.628Z,95954.59
2019-04-24T20:54:02.465Z,95977.49
2019-04-24T20:57:06.559Z,95983.47
2019-04-24T20:59:54.847Z,95998.82
2019-04-24T21:02:51.395Z,96017.36
2019-04-24T21:06:05.088Z,96031.88
2019-04-24T21:09:17.468Z,96069.49
2019-04-24T21:12:06.395Z,96064.70
2019-04-24T21:15:15.329Z,96081.88
2019-04-24T21:18:11.164Z,96078.88
2019-04-24T21:21:07.867Z,96094.89
2019-04-24T21:24:04.486Z,96103.77
2019-04-24T21:27:01.876Z,96100.55
2019-04-24T21:29:57.032Z,96108.54
2019-04-24T21:32:53.351Z,96122.28
2019-04-24T21:35:52.275Z,96128.37
2019-04-24T21:38:47.525Z,96132.83
2019-04-24T21:41:44.290Z,96136.49
2019-04-24T21:44:41.911Z,96139.60
2019-04-24T21:47:37.646Z,96151.89
2019-04-24T21:50:33.472Z,96164.41
2019-04-24T21:53:32.419Z,96190.48
2019-04-24T21:56:26.724Z,96201.66
2019-04-24T21:59:23.574Z,96201.73
2019-04-24T22:02:31.896Z,96213.87
2019-04-24T22:05:31.795Z,96212.32
2019-04-24T22:08:27.964Z,96193.66
2019-04-24T22:11:24.819Z,96216.89
2019-04-24T22:14:22.142Z,96233.30
2019-04-24T22:17:17.374Z,96234.28
2019-04-24T22:20:12.935Z,96237.57
2019-04-24T22:23:24.171Z,96260.30
2019-04-24T22:26:21.229Z,96251.09
2019-04-24T22:29:17.522Z,96249.56
2019-04-24T22:32:31.033Z,96265.77
2019-04-24T22:35:33.716Z,96281.55
2019-04-24T22:38:29.169Z,96282.88
2019-04-24T22:41:24.534Z,96296.61
2019-04-24T22:44:21.968Z,96297.49
2019-04-24T22:47:17.788Z,96304.27
2019-04-24T22:50:14.477Z,96313.19
2019-04-24T22:53:12.033Z,96313.66
2019-04-24T22:56:08.808Z,96328.66
2019-04-24T22:59:04.220Z,96335.10
2019-04-24T23:02:02.915Z,96337.64
2019-04-24T23:04:58.785Z,96339.72
2019-04-24T23:07:54.622Z,96348.62
2019-04-24T23:10:53.814Z,96347.36
2019-04-24T23:13:47.796Z,96360.16
2019-04-24T23:16:44.679Z,96366.15
2019-04-24T23:19:41.681Z,96362.33
2019-04-24T23:22:48.933Z,96353.89
2019-04-24T23:25:54.135Z,96353.52
2019-04-24T23:28:59.285Z,96344.68
2019-04-24T23:32:13.765Z,96346.40
2019-04-24T23:35:09.186Z,96339.25
2019-04-24T23:38:12.196Z,96328.39
2019-04-24T23:41:10.914Z,96334.01
2019-04-24T23:44:04.794Z,96334.84
2019-04-24T23:47:03.529Z,96340.82
2019-04-24T23:49:59.133Z,96351.01
2019-04-24T23:52:55.736Z,96351.01
2019-04-24T23:55:51.487Z,96356.50
2019-04-24T23:58:48.189Z,96354.43
